Time,TemperatureF,DewpointF,PressureIn,WindDirection,WindDirectionDegrees,WindSpeedMPH,WindSpeedGustMPH,Humidity,HourlyPrecipIn,Conditions,Clouds,dailyrainin,SoftwareType,DateUTC
2013-01-06 00:13:00,32.6,24.0,30.40,WSW,254,0.0,1.0,70,0.00,,,0.00,weatherlink.com 1.10,2013-01-06 06:13:00,
2013-01-06 00:28:00,30.5,23.0,30.41,WSW,254,0.0,1.0,73,0.00,,,0.00,weatherlink.com 1.10,2013-01-06 06:28:00,
2013-01-06 00:43:00,28.9,23.0,30.40,WSW,254,0.0,1.0,77,0.00,,,0.00,weatherlink.com 1.10,2013-01-06 06:43:00,
2013-01-06 00:58:00,30.8,23.0,30.40,WSW,253,1.0,2.0,74,0.00,,,0.00,weatherlink.com 1.10,2013-01-06 06:58:00,
2013-01-06 01:13:00,32.0,24.0,30.40,WSW,254,0.0,0.0,71,0.00,,,0.00,weatherlink.com 1.10,2013-01-06 07:13:00,
2013-01-06 01:28:00,33.0,23.0,30.40,WSW,253,0.0,2.0,68,0.00,,,0.00,weatherlink.com 1.10,2013-01-06 07:28:00,
2013-01-06 01:43:00,30.5,22.0,30.40,WSW,254,0.0,0.0,72,0.00,,,0.00,weatherlink.com 1.10,2013-01-06 07:43:00,
2013-01-06 01:58:00,30.9,23.0,30.40,WSW,253,0.0,0.0,73,0.00,,,0.00,weatherlink.com 1.10,2013-01-06 07:58:00,
2013-01-06 02:13:00,29.3,22.0,30.40,WSW,254,0.0,0.0,75,0.00,,,0.00,weatherlink.com 1.10,2013-01-06 08:13:00,
2013-01-06 02:28:00,29.4,22.0,30.40,WSW,254,0.0,1.0,74,0.00,,,0.00,weatherlink.com 1.10,2013-01-06 08:28:00,
2013-01-06 02:43:00,30.6,23.0,30.40,WSW,253,0.0,0.0,72,0.00,,,0.00,weatherlink.com 1.10,2013-01-06 08:43:00,
2013-01-06 02:58:00,32.5,24.0,30.40,WSW,254,0.0,2.0,70,0.00,,,0.00,weatherlink.com 1.10,2013-01-06 08:58:00,
2013-01-06 03:13:00,31.1,23.0,30.40,WSW,254,0.0,0.0,73,0.00,,,0.00,weatherlink.com 1.10,2013-01-06 09:13:00,
2013-01-06 03:28:00,31.5,22.0,30.40,WSW,254,0.0,1.0,69,0.00,,,0.00,weatherlink.com 1.10,2013-01-06 09:28:00,
2013-01-06 03:44:00,30.1,23.0,30.40,WSW,254,0.0,0.0,74,0.00,,,0.00,weatherlink.com 1.10,2013-01-06 09:44:00,
2013-01-06 03:59:00,30.2,23.0,30.41,WSW,253,0.0,1.0,75,0.00,,,0.00,weatherlink.com 1.10,2013-01-06 09:59:00,
2013-01-06 04:14:00,28.9,23.0,30.40,WSW,254,1.0,2.0,79,0.00,,,0.00,weatherlink.com 1.10,2013-01-06 10:14:00,
2013-01-06 04:29:00,34.5,23.0,30.40,WSW,253,0.0,2.0,64,0.00,,,0.00,weatherlink.com 1.10,2013-01-06 10:29:00,
2013-01-06 04:44:00,35.2,23.0,30.40,WSW,253,0.0,3.0,61,0.00,,,0.00,weatherlink.com 1.10,2013-01-06 10:44:00,
2013-01-06 04:59:00,34.5,23.0,30.40,WSW,254,0.0,1.0,62,0.00,,,0.00,weatherlink.com 1.10,2013-01-06 10:59:00,
2013-01-06 05:14:00,32.7,22.0,30.40,WSW,253,1.0,2.0,66,0.00,,,0.00,weatherlink.com 1.10,2013-01-06 11:14:00,
2013-01-06 05:29:00,32.6,23.0,30.41,WSW,253,0.0,2.0,67,0.00,,,0.00,weatherlink.com 1.10,2013-01-06 11:29:00,
2013-01-06 05:44:00,32.6,23.0,30.41,WSW,254,0.0,2.0,68,0.00,,,0.00,weatherlink.com 1.10,2013-01-06 11:44:00,
2013-01-06 05:59:00,31.8,23.0,30.41,WSW,254,1.0,2.0,70,0.00,,,0.00,weatherlink.com 1.10,2013-01-06 11:59:00,
2013-01-06 06:14:00,31.1,23.0,30.41,WSW,253,2.0,3.0,71,0.00,,,0.00,weatherlink.com 1.10,2013-01-06 12:14:00,
2013-01-06 06:29:00,30.5,23.0,30.42,WSW,253,0.0,2.0,73,0.00,,,0.00,weatherlink.com 1.10,2013-01-06 12:29:00,
2013-01-06 06:44:00,30.5,23.0,30.42,WSW,254,0.0,2.0,73,0.00,,,0.00,weatherlink.com 1.10,2013-01-06 12:44:00,
2013-01-06 06:59:00,28.6,21.0,30.43,WSW,254,0.0,1.0,73,0.00,,,0.00,weatherlink.com 1.10,2013-01-06 12:59:00,
2013-01-06 07:14:00,29.1,22.0,30.44,WSW,253,1.0,2.0,75,0.00,,,0.00,weatherlink.com 1.10,2013-01-06 13:14:00,
2013-01-06 07:29:00,30.5,23.0,30.44,WSW,254,0.0,1.0,73,0.00,,,0.00,weatherlink.com 1.10,2013-01-06 13:29:00,
2013-01-06 07:44:00,30.1,22.0,30.45,WSW,253,0.0,2.0,73,0.00,,,0.00,weatherlink.com 1.10,2013-01-06 13:44:00,
2013-01-06 07:59:00,27.8,21.0,30.45,WSW,254,0.0,0.0,75,0.00,,,0.00,weatherlink.com 1.10,2013-01-06 13:59:00,
2013-01-06 08:14:00,28.4,21.0,30.46,WSW,253,0.0,1.0,75,0.00,,,0.00,weatherlink.com 1.10,2013-01-06 14:14:00,
2013-01-06 08:29:00,28.7,22.0,30.46,WSW,253,0.0,2.0,76,0.00,,,0.00,weatherlink.com 1.10,2013-01-06 14:29:00,
2013-01-06 08:44:00,27.8,21.0,30.47,WSW,254,0.0,1.0,76,0.00,,,0.00,weatherlink.com 1.10,2013-01-06 14:44:00,
2013-01-06 08:59:00,30.8,22.0,30.47,WSW,254,0.0,0.0,70,0.00,,,0.00,weatherlink.com 1.10,2013-01-06 14:59:00,
2013-01-06 09:14:00,30.5,23.0,30.48,WSW,254,0.0,1.0,74,0.00,,,0.00,weatherlink.com 1.10,2013-01-06 15:14:00,
2013-01-06 09:29:00,33.1,24.0,30.48,WSW,254,0.0,1.0,70,0.00,,,0.00,weatherlink.com 1.10,2013-01-06 15:29:00,
2013-01-06 09:44:00,34.3,24.0,30.48,WSW,254,0.0,2.0,67,0.01,,,0.01,weatherlink.com 1.10,2013-01-06 15:44:00,
2013-01-06 09:59:00,35.1,25.0,30.48,WSW,254,0.0,2.0,66,0.01,,,0.01,weatherlink.com 1.10,2013-01-06 15:59:00,
2013-01-06 10:14:00,36.1,25.0,30.48,WSW,254,2.0,3.0,65,0.01,,,0.01,weatherlink.com 1.10,2013-01-06 16:14:00,
2013-01-06 10:29:00,37.5,26.0,30.48,WSW,254,1.0,3.0,64,0.02,,,0.02,weatherlink.com 1.10,2013-01-06 16:29:00,
2013-01-06 10:45:00,39.0,26.0,30.48,WSW,254,1.0,4.0,60,0.01,,,0.02,weatherlink.com 1.10,2013-01-06 16:45:00,
2013-01-06 11:00:00,39.2,27.0,30.47,WSW,254,1.0,4.0,61,0.01,,,0.02,weatherlink.com 1.10,2013-01-06 17:00:00,
2013-01-06 11:15:00,40.1,26.0,30.47,WSW,254,1.0,5.0,57,0.01,,,0.02,weatherlink.com 1.10,2013-01-06 17:15:00,
2013-01-06 11:30:00,40.9,27.0,30.46,WSW,254,4.0,5.0,58,0.00,,,0.02,weatherlink.com 1.10,2013-01-06 17:30:00,
2013-01-06 11:45:00,41.5,27.0,30.45,WSW,254,1.0,6.0,57,0.01,,,0.03,weatherlink.com 1.10,2013-01-06 17:45:00,
2013-01-06 12:03:00,42.3,27.0,30.44,West,265,4.0,6.0,56,0.01,,,0.03,weatherlink.com 1.10,2013-01-06 18:03:00,
2013-01-06 12:15:00,43.4,27.0,30.43,West,266,3.0,5.0,53,0.01,,,0.03,weatherlink.com 1.10,2013-01-06 18:15:00,
2013-01-06 12:30:00,44.7,28.0,30.42,West,267,0.0,5.0,52,0.01,,,0.03,weatherlink.com 1.10,2013-01-06 18:30:00,
2013-01-06 12:45:00,45.2,29.0,30.41,WNW,302,3.0,7.0,53,0.01,,,0.04,weatherlink.com 1.10,2013-01-06 18:45:00,
2013-01-06 13:00:00,45.2,29.0,30.40,NW,304,6.0,8.0,54,0.01,,,0.04,weatherlink.com 1.10,2013-01-06 19:00:00,
2013-01-06 13:15:00,46.1,29.0,30.39,NW,304,4.0,7.0,51,0.01,,,0.04,weatherlink.com 1.10,2013-01-06 19:15:00,
2013-01-06 13:30:00,46.1,28.0,30.38,WNW,302,4.0,7.0,50,0.01,,,0.04,weatherlink.com 1.10,2013-01-06 19:30:00,
2013-01-06 13:45:00,47.6,30.0,30.36,NW,305,0.0,7.0,50,0.00,,,0.04,weatherlink.com 1.10,2013-01-06 19:45:00,
2013-01-06 14:15:00,48.5,28.0,30.34,NW,304,4.0,5.0,45,0.00,,,0.04,weatherlink.com 1.10,2013-01-06 20:15:00,
2013-01-06 14:30:00,48.8,29.0,30.33,WNW,303,4.0,6.0,47,0.00,,,0.04,weatherlink.com 1.10,2013-01-06 20:30:00,
2013-01-06 14:45:00,49.1,28.0,30.33,WNW,303,0.0,6.0,45,0.00,,,0.04,weatherlink.com 1.10,2013-01-06 20:45:00,
2013-01-06 15:00:00,49.6,28.0,30.32,NW,307,1.0,5.0,44,0.00,,,0.04,weatherlink.com 1.10,2013-01-06 21:00:00,
2013-01-06 15:16:00,49.4,29.0,30.32,NNW,337,3.0,6.0,45,0.00,,,0.04,weatherlink.com 1.10,2013-01-06 21:16:00,
2013-01-06 15:31:00,50.3,30.0,30.31,NNW,334,0.0,7.0,45,0.00,,,0.04,weatherlink.com 1.10,2013-01-06 21:31:00,
2013-01-06 15:46:00,50.3,29.0,30.31,NNW,334,1.0,4.0,44,0.00,,,0.04,weatherlink.com 1.10,2013-01-06 21:46:00,
2013-01-06 16:01:00,50.4,30.0,30.30,NE,54,0.0,8.0,45,0.00,,,0.04,weatherlink.com 1.10,2013-01-06 22:01:00,
2013-01-06 16:16:00,50.1,29.0,30.30,NE,54,0.0,5.0,44,0.00,,,0.04,weatherlink.com 1.10,2013-01-06 22:16:00,
2013-01-06 16:31:00,49.7,32.0,30.30,ENE,61,2.0,7.0,50,0.00,,,0.04,weatherlink.com 1.10,2013-01-06 22:31:00,
2013-01-06 16:46:00,48.7,31.0,30.30,ENE,71,2.0,7.0,51,0.00,,,0.04,weatherlink.com 1.10,2013-01-06 22:46:00,
2013-01-06 17:01:00,47.8,32.0,30.30,East,90,3.0,8.0,55,0.00,,,0.04,weatherlink.com 1.10,2013-01-06 23:01:00,
2013-01-06 17:16:00,46.9,31.0,30.30,East,93,3.0,8.0,55,0.00,,,0.04,weatherlink.com 1.10,2013-01-06 23:16:00,
2013-01-06 17:31:00,46.0,31.0,30.30,East,92,3.0,7.0,57,0.00,,,0.04,weatherlink.com 1.10,2013-01-06 23:31:00,
2013-01-06 17:46:00,44.5,31.0,30.30,East,90,2.0,8.0,60,0.00,,,0.04,weatherlink.com 1.10,2013-01-06 23:46:00,
2013-01-06 18:01:00,43.2,31.0,30.29,East,90,5.0,9.0,63,0.00,,,0.04,weatherlink.com 1.10,2013-01-07 00:01:00,
2013-01-06 18:16:00,42.0,31.0,30.29,East,90,6.0,8.0,64,0.00,,,0.04,weatherlink.com 1.10,2013-01-07 00:16:00,
2013-01-06 18:31:00,41.4,30.0,30.29,East,90,3.0,7.0,65,0.00,,,0.04,weatherlink.com 1.10,2013-01-07 00:31:00,
2013-01-06 18:46:00,40.6,30.0,30.30,East,90,1.0,6.0,66,0.00,,,0.04,weatherlink.com 1.10,2013-01-07 00:46:00,
2013-01-06 19:01:00,40.0,30.0,30.30,East,90,0.0,3.0,67,0.00,,,0.04,weatherlink.com 1.10,2013-01-07 01:01:00,
2013-01-06 19:16:00,39.5,30.0,30.29,East,90,0.0,2.0,69,0.00,,,0.04,weatherlink.com 1.10,2013-01-07 01:16:00,
2013-01-06 19:31:00,38.9,30.0,30.29,East,90,0.0,1.0,70,0.00,,,0.04,weatherlink.com 1.10,2013-01-07 01:31:00,
2013-01-06 19:46:00,37.8,30.0,30.30,East,90,0.0,1.0,74,0.00,,,0.04,weatherlink.com 1.10,2013-01-07 01:46:00,
2013-01-06 20:01:00,37.1,30.0,30.30,East,90,0.0,0.0,76,0.00,,,0.04,weatherlink.com 1.10,2013-01-07 02:01:00,
2013-01-06 20:16:00,36.3,30.0,30.30,East,90,0.0,0.0,77,0.00,,,0.04,weatherlink.com 1.10,2013-01-07 02:16:00,
2013-01-06 20:31:00,36.3,30.0,30.30,East,90,0.0,0.0,78,0.00,,,0.04,weatherlink.com 1.10,2013-01-07 02:31:00,
2013-01-06 20:46:00,35.1,29.0,30.30,East,90,0.0,1.0,79,0.00,,,0.04,weatherlink.com 1.10,2013-01-07 02:46:00,
2013-01-06 21:01:00,34.7,29.0,30.30,East,90,0.0,0.0,80,0.00,,,0.04,weatherlink.com 1.10,2013-01-07 03:01:00,
2013-01-06 21:16:00,34.4,29.0,30.30,East,90,0.0,0.0,81,0.00,,,0.04,weatherlink.com 1.10,2013-01-07 03:16:00,
2013-01-06 21:31:00,34.8,29.0,30.30,East,90,0.0,0.0,80,0.00,,,0.04,weatherlink.com 1.10,2013-01-07 03:31:00,
2013-01-06 21:46:00,35.0,29.0,30.30,East,90,0.0,0.0,79,0.00,,,0.04,weatherlink.com 1.10,2013-01-07 03:46:00,
2013-01-06 22:01:00,34.8,29.0,30.29,East,90,0.0,0.0,80,0.00,,,0.04,weatherlink.com 1.10,2013-01-07 04:01:00,
2013-01-06 22:16:00,35.6,30.0,30.29,East,90,0.0,1.0,79,0.00,,,0.04,weatherlink.com 1.10,2013-01-07 04:16:00,
2013-01-06 22:31:00,36.4,29.0,30.28,East,90,1.0,1.0,73,0.00,,,0.04,weatherlink.com 1.10,2013-01-07 04:31:00,
2013-01-06 23:01:00,36.5,26.0,30.27,East,90,0.0,2.0,65,0.00,,,0.04,weatherlink.com 1.10,2013-01-07 05:01:00,
2013-01-06 23:16:00,35.3,26.0,30.27,East,90,0.0,0.0,69,0.00,,,0.04,weatherlink.com 1.10,2013-01-07 05:16:00,
2013-01-06 23:31:00,36.0,26.0,30.26,East,90,3.0,3.0,67,0.00,,,0.04,weatherlink.com 1.10,2013-01-07 05:31:00,